sensor_id;sensor_type;location;lat;lon;timestamp;P1;durP1;ratioP1;P2;durP2;ratioP2
12218;SDS011;6172;42.646;23.344;2024-03-25T00:00:28;0.30;;;0.00;;
12218;SDS011;6172;42.646;23.344;2024-03-25T00:03:00;0.47;;;0.00;;
12218;SDS011;6172;42.646;23.344;2024-03-25T00:05:30;0.00;;;0.00;;
12218;SDS011;6172;42.646;23.344;2024-03-25T00:07:57;0.40;;;0.00;;
12218;SDS011;6172;42.646;23.344;2024-03-25T00:10:24;1.23;;;0.10;;
12218;SDS011;6172;42.646;23.344;2024-03-25T00:12:51;0.20;;;0.00;;
12218;SDS011;6172;42.646;23.344;2024-03-25T00:15:20;0.20;;;0.00;;
12218;SDS011;6172;42.646;23.344;2024-03-25T00:17:46;1.17;;;0.00;;
12218;SDS011;6172;42.646;23.344;2024-03-25T00:20:13;0.00;;;0.00;;
12218;SDS011;6172;42.646;23.344;2024-03-25T00:22:42;0.13;;;0.00;;
12218;SDS011;6172;42.646;23.344;2024-03-25T00:25:21;0.00;;;0.00;;
12218;SDS011;6172;42.646;23.344;2024-03-25T00:27:48;0.00;;;0.00;;
12218;SDS011;6172;42.646;23.344;2024-03-25T00:33:00;0.73;;;0.00;;
12218;SDS011;6172;42.646;23.344;2024-03-25T00:35:27;0.20;;;0.00;;
12218;SDS011;6172;42.646;23.344;2024-03-25T00:37:53;0.00;;;0.00;;
12218;SDS011;6172;42.646;23.344;2024-03-25T00:40:23;0.10;;;0.00;;
12218;SDS011;6172;42.646;23.344;2024-03-25T00:42:54;0.30;;;0.00;;
12218;SDS011;6172;42.646;23.344;2024-03-25T00:45:26;0.23;;;0.00;;
12218;SDS011;6172;42.646;23.344;2024-03-25T00:47:57;0.27;;;0.00;;
12218;SDS011;6172;42.646;23.344;2024-03-25T00:50:24;0.00;;;0.00;;
12218;SDS011;6172;42.646;23.344;2024-03-25T00:52:56;0.10;;;0.00;;
12218;SDS011;6172;42.646;23.344;2024-03-25T00:55:28;0.23;;;0.10;;
12218;SDS011;6172;42.646;23.344;2024-03-25T00:57:56;0.97;;;0.00;;
12218;SDS011;6172;42.646;23.344;2024-03-25T01:00:23;0.00;;;0.00;;
12218;SDS011;6172;42.646;23.344;2024-03-25T01:02:50;0.10;;;0.00;;
12218;SDS011;6172;42.646;23.344;2024-03-25T01:05:18;0.20;;;0.00;;
12218;SDS011;6172;42.646;23.344;2024-03-25T01:07:44;0.07;;;0.00;;
12218;SDS011;6172;42.646;23.344;2024-03-25T01:10:11;0.67;;;0.00;;
12218;SDS011;6172;42.646;23.344;2024-03-25T01:12:38;0.00;;;0.00;;
12218;SDS011;6172;42.646;23.344;2024-03-25T01:15:19;0.63;;;0.00;;
12218;SDS011;6172;42.646;23.344;2024-03-25T01:17:50;0.33;;;0.00;;
12218;SDS011;6172;42.646;23.344;2024-03-25T01:20:16;0.10;;;0.00;;
12218;SDS011;6172;42.646;23.344;2024-03-25T01:22:48;0.00;;;0.00;;
12218;SDS011;6172;42.646;23.344;2024-03-25T01:25:17;0.10;;;0.00;;
12218;SDS011;6172;42.646;23.344;2024-03-25T01:27:45;0.30;;;0.00;;
12218;SDS011;6172;42.646;23.344;2024-03-25T01:30:13;0.10;;;0.00;;
12218;SDS011;6172;42.646;23.344;2024-03-25T01:32:40;0.00;;;0.00;;
12218;SDS011;6172;42.646;23.344;2024-03-25T01:35:15;0.00;;;0.00;;
12218;SDS011;6172;42.646;23.344;2024-03-25T01:37:42;0.23;;;0.00;;
12218;SDS011;6172;42.646;23.344;2024-03-25T01:40:10;0.10;;;0.00;;
12218;SDS011;6172;42.646;23.344;2024-03-25T01:42:40;0.10;;;0.00;;
12218;SDS011;6172;42.646;23.344;2024-03-25T01:45:10;0.00;;;0.00;;
12218;SDS011;6172;42.646;23.344;2024-03-25T01:47:40;0.00;;;0.00;;
12218;SDS011;6172;42.646;23.344;2024-03-25T01:50:06;0.00;;;0.00;;
12218;SDS011;6172;42.646;23.344;2024-03-25T01:52:37;0.00;;;0.00;;
12218;SDS011;6172;42.646;23.344;2024-03-25T01:55:12;0.13;;;0.00;;
12218;SDS011;6172;42.646;23.344;2024-03-25T01:57:44;0.00;;;0.00;;
12218;SDS011;6172;42.646;23.344;2024-03-25T02:00:11;0.10;;;0.00;;
12218;SDS011;6172;42.646;23.344;2024-03-25T02:02:39;0.43;;;0.00;;
12218;SDS011;6172;42.646;23.344;2024-03-25T02:05:07;0.10;;;0.00;;
12218;SDS011;6172;42.646;23.344;2024-03-25T02:07:34;0.00;;;0.00;;
12218;SDS011;6172;42.646;23.344;2024-03-25T02:10:01;0.10;;;0.00;;
12218;SDS011;6172;42.646;23.344;2024-03-25T02:12:31;0.00;;;0.00;;
12218;SDS011;6172;42.646;23.344;2024-03-25T02:14:58;0.10;;;0.00;;
12218;SDS011;6172;42.646;23.344;2024-03-25T02:17:25;0.13;;;0.00;;
12218;SDS011;6172;42.646;23.344;2024-03-25T02:19:51;0.60;;;0.00;;
12218;SDS011;6172;42.646;23.344;2024-03-25T02:22:18;0.10;;;0.00;;
12218;SDS011;6172;42.646;23.344;2024-03-25T02:24:44;0.53;;;0.00;;
12218;SDS011;6172;42.646;23.344;2024-03-25T02:27:14;0.00;;;0.00;;
12218;SDS011;6172;42.646;23.344;2024-03-25T02:29:40;0.07;;;0.00;;
12218;SDS011;6172;42.646;23.344;2024-03-25T02:32:07;0.10;;;0.07;;
12218;SDS011;6172;42.646;23.344;2024-03-25T02:34:35;0.00;;;0.00;;
12218;SDS011;6172;42.646;23.344;2024-03-25T02:37:03;0.10;;;0.00;;
12218;SDS011;6172;42.646;23.344;2024-03-25T02:39:29;0.17;;;0.00;;
12218;SDS011;6172;42.646;23.344;2024-03-25T02:41:56;0.10;;;0.10;;
12218;SDS011;6172;42.646;23.344;2024-03-25T02:44:24;0.83;;;0.00;;
12218;SDS011;6172;42.646;23.344;2024-03-25T02:46:51;0.00;;;0.00;;
12218;SDS011;6172;42.646;23.344;2024-03-25T02:49:18;0.00;;;0.00;;
12218;SDS011;6172;42.646;23.344;2024-03-25T02:51:45;0.27;;;0.00;;
12218;SDS011;6172;42.646;23.344;2024-03-25T02:54:11;0.00;;;0.00;;
12218;SDS011;6172;42.646;23.344;2024-03-25T02:56:39;0.20;;;0.00;;
12218;SDS011;6172;42.646;23.344;2024-03-25T02:59:05;0.40;;;0.00;;
12218;SDS011;6172;42.646;23.344;2024-03-25T03:01:33;0.40;;;0.00;;
12218;SDS011;6172;42.646;23.344;2024-03-25T03:03:59;0.00;;;0.00;;
12218;SDS011;6172;42.646;23.344;2024-03-25T03:06:26;0.10;;;0.00;;
12218;SDS011;6172;42.646;23.344;2024-03-25T03:08:52;0.03;;;0.03;;
12218;SDS011;6172;42.646;23.344;2024-03-25T03:11:19;0.00;;;0.00;;
12218;SDS011;6172;42.646;23.344;2024-03-25T03:13:45;0.00;;;0.00;;
12218;SDS011;6172;42.646;23.344;2024-03-25T03:16:12;0.10;;;0.10;;
12218;SDS011;6172;42.646;23.344;2024-03-25T03:18:39;0.10;;;0.10;;
12218;SDS011;6172;42.646;23.344;2024-03-25T03:21:06;0.00;;;0.00;;
12218;SDS011;6172;42.646;23.344;2024-03-25T03:23:32;0.10;;;0.10;;
12218;SDS011;6172;42.646;23.344;2024-03-25T03:25:59;0.10;;;0.10;;
12218;SDS011;6172;42.646;23.344;2024-03-25T03:28:25;0.10;;;0.10;;
12218;SDS011;6172;42.646;23.344;2024-03-25T03:30:54;0.10;;;0.10;;
12218;SDS011;6172;42.646;23.344;2024-03-25T03:33:19;0.20;;;0.20;;
12218;SDS011;6172;42.646;23.344;2024-03-25T03:35:48;0.20;;;0.20;;
12218;SDS011;6172;42.646;23.344;2024-03-25T03:38:15;0.20;;;0.20;;
12218;SDS011;6172;42.646;23.344;2024-03-25T03:40:42;0.30;;;0.30;;
12218;SDS011;6172;42.646;23.344;2024-03-25T03:43:08;0.53;;;0.30;;
12218;SDS011;6172;42.646;23.344;2024-03-25T03:45:34;0.50;;;0.50;;
12218;SDS011;6172;42.646;23.344;2024-03-25T03:48:00;0.60;;;0.60;;
12218;SDS011;6172;42.646;23.344;2024-03-25T03:50:27;0.47;;;0.47;;
12218;SDS011;6172;42.646;23.344;2024-03-25T03:52:55;1.07;;;0.70;;
12218;SDS011;6172;42.646;23.344;2024-03-25T03:55:22;0.87;;;0.60;;
12218;SDS011;6172;42.646;23.344;2024-03-25T03:57:47;1.50;;;0.90;;
12218;SDS011;6172;42.646;23.344;2024-03-25T04:00:15;2.43;;;1.00;;
12218;SDS011;6172;42.646;23.344;2024-03-25T04:02:41;0.90;;;0.70;;
12218;SDS011;6172;42.646;23.344;2024-03-25T04:05:08;2.40;;;0.73;;
12218;SDS011;6172;42.646;23.344;2024-03-25T04:07:34;1.83;;;0.90;;
12218;SDS011;6172;42.646;23.344;2024-03-25T04:10:02;1.13;;;0.70;;
12218;SDS011;6172;42.646;23.344;2024-03-25T04:12:28;1.27;;;0.70;;
12218;SDS011;6172;42.646;23.344;2024-03-25T04:14:55;0.83;;;0.60;;
12218;SDS011;6172;42.646;23.344;2024-03-25T04:17:21;1.80;;;0.83;;
12218;SDS011;6172;42.646;23.344;2024-03-25T04:19:48;1.20;;;0.70;;
12218;SDS011;6172;42.646;23.344;2024-03-25T04:22:14;1.97;;;1.10;;
12218;SDS011;6172;42.646;23.344;2024-03-25T04:24:42;1.40;;;1.10;;
12218;SDS011;6172;42.646;23.344;2024-03-25T04:27:09;1.80;;;1.37;;
12218;SDS011;6172;42.646;23.344;2024-03-25T04:29:37;3.83;;;1.33;;
12218;SDS011;6172;42.646;23.344;2024-03-25T04:32:02;2.17;;;1.90;;
12218;SDS011;6172;42.646;23.344;2024-03-25T04:34:30;2.73;;;1.90;;
12218;SDS011;6172;42.646;23.344;2024-03-25T04:36:56;2.80;;;1.77;;
12218;SDS011;6172;42.646;23.344;2024-03-25T04:39:23;2.80;;;2.13;;
12218;SDS011;6172;42.646;23.344;2024-03-25T04:41:48;4.07;;;2.27;;
12218;SDS011;6172;42.646;23.344;2024-03-25T04:44:16;4.50;;;2.70;;
12218;SDS011;6172;42.646;23.344;2024-03-25T04:46:42;5.47;;;3.00;;
12218;SDS011;6172;42.646;23.344;2024-03-25T04:49:08;3.47;;;1.93;;
12218;SDS011;6172;42.646;23.344;2024-03-25T04:51:34;5.93;;;2.73;;
12218;SDS011;6172;42.646;23.344;2024-03-25T04:54:00;4.63;;;2.63;;
12218;SDS011;6172;42.646;23.344;2024-03-25T04:56:26;5.90;;;2.97;;
12218;SDS011;6172;42.646;23.344;2024-03-25T04:58:52;4.03;;;3.10;;
12218;SDS011;6172;42.646;23.344;2024-03-25T05:01:19;4.80;;;3.07;;
12218;SDS011;6172;42.646;23.344;2024-03-25T05:03:45;4.83;;;2.87;;
12218;SDS011;6172;42.646;23.344;2024-03-25T05:06:11;6.20;;;3.17;;
12218;SDS011;6172;42.646;23.344;2024-03-25T05:08:37;6.83;;;3.27;;
12218;SDS011;6172;42.646;23.344;2024-03-25T05:11:03;6.43;;;3.70;;
12218;SDS011;6172;42.646;23.344;2024-03-25T05:13:29;6.17;;;3.47;;
12218;SDS011;6172;42.646;23.344;2024-03-25T05:15:55;4.43;;;3.13;;
12218;SDS011;6172;42.646;23.344;2024-03-25T05:18:23;4.80;;;3.17;;
12218;SDS011;6172;42.646;23.344;2024-03-25T05:20:49;5.57;;;3.70;;
12218;SDS011;6172;42.646;23.344;2024-03-25T05:23:15;6.70;;;3.70;;
12218;SDS011;6172;42.646;23.344;2024-03-25T05:25:40;7.47;;;4.07;;
12218;SDS011;6172;42.646;23.344;2024-03-25T05:28:06;5.67;;;3.50;;
12218;SDS011;6172;42.646;23.344;2024-03-25T05:30:33;6.83;;;3.67;;
12218;SDS011;6172;42.646;23.344;2024-03-25T05:32:58;7.47;;;4.30;;
12218;SDS011;6172;42.646;23.344;2024-03-25T05:35:26;7.87;;;4.43;;
12218;SDS011;6172;42.646;23.344;2024-03-25T05:37:52;7.27;;;4.27;;
12218;SDS011;6172;42.646;23.344;2024-03-25T05:40:17;6.37;;;3.30;;
12218;SDS011;6172;42.646;23.344;2024-03-25T05:42:44;6.20;;;3.83;;
12218;SDS011;6172;42.646;23.344;2024-03-25T05:45:10;8.73;;;4.57;;
12218;SDS011;6172;42.646;23.344;2024-03-25T05:47:36;6.60;;;4.63;;
12218;SDS011;6172;42.646;23.344;2024-03-25T05:50:02;6.37;;;4.17;;
12218;SDS011;6172;42.646;23.344;2024-03-25T05:52:30;7.00;;;4.27;;
12218;SDS011;6172;42.646;23.344;2024-03-25T05:54:56;6.87;;;4.30;;
12218;SDS011;6172;42.646;23.344;2024-03-25T05:57:22;6.40;;;4.07;;
12218;SDS011;6172;42.646;23.344;2024-03-25T05:59:47;6.77;;;4.40;;
12218;SDS011;6172;42.646;23.344;2024-03-25T06:02:13;6.07;;;4.03;;
12218;SDS011;6172;42.646;23.344;2024-03-25T06:04:39;6.17;;;4.30;;
12218;SDS011;6172;42.646;23.344;2024-03-25T06:07:05;6.67;;;4.63;;
12218;SDS011;6172;42.646;23.344;2024-03-25T06:09:33;5.67;;;3.97;;
12218;SDS011;6172;42.646;23.344;2024-03-25T06:11:59;7.67;;;4.80;;
12218;SDS011;6172;42.646;23.344;2024-03-25T06:14:25;6.87;;;4.37;;
12218;SDS011;6172;42.646;23.344;2024-03-25T06:16:51;6.00;;;4.20;;
12218;SDS011;6172;42.646;23.344;2024-03-25T06:19:16;7.03;;;4.63;;
12218;SDS011;6172;42.646;23.344;2024-03-25T06:21:42;7.07;;;5.00;;
12218;SDS011;6172;42.646;23.344;2024-03-25T06:24:08;6.57;;;4.30;;
12218;SDS011;6172;42.646;23.344;2024-03-25T06:26:36;7.00;;;4.40;;
12218;SDS011;6172;42.646;23.344;2024-03-25T06:29:01;6.57;;;4.83;;
12218;SDS011;6172;42.646;23.344;2024-03-25T06:31:28;5.97;;;4.23;;
12218;SDS011;6172;42.646;23.344;2024-03-25T06:34:12;6.30;;;4.50;;
12218;SDS011;6172;42.646;23.344;2024-03-25T06:36:42;6.97;;;4.43;;
12218;SDS011;6172;42.646;23.344;2024-03-25T06:39:09;7.00;;;4.57;;
12218;SDS011;6172;42.646;23.344;2024-03-25T06:41:36;5.97;;;4.60;;
12218;SDS011;6172;42.646;23.344;2024-03-25T06:44:02;6.17;;;4.37;;
12218;SDS011;6172;42.646;23.344;2024-03-25T06:46:28;6.03;;;4.23;;
12218;SDS011;6172;42.646;23.344;2024-03-25T06:48:54;3.63;;;3.23;;
12218;SDS011;6172;42.646;23.344;2024-03-25T06:51:20;6.20;;;4.27;;
12218;SDS011;6172;42.646;23.344;2024-03-25T06:53:45;5.43;;;3.70;;
12218;SDS011;6172;42.646;23.344;2024-03-25T06:56:11;5.43;;;4.00;;
12218;SDS011;6172;42.646;23.344;2024-03-25T06:58:39;5.17;;;3.87;;
12218;SDS011;6172;42.646;23.344;2024-03-25T07:01:05;4.53;;;3.57;;
12218;SDS011;6172;42.646;23.344;2024-03-25T07:03:49;4.43;;;3.40;;
12218;SDS011;6172;42.646;23.344;2024-03-25T07:06:15;5.03;;;3.97;;
12218;SDS011;6172;42.646;23.344;2024-03-25T07:08:41;5.03;;;3.70;;
12218;SDS011;6172;42.646;23.344;2024-03-25T07:11:07;5.50;;;3.73;;
12218;SDS011;6172;42.646;23.344;2024-03-25T07:13:33;5.13;;;4.07;;
12218;SDS011;6172;42.646;23.344;2024-03-25T07:16:00;5.63;;;4.10;;
12218;SDS011;6172;42.646;23.344;2024-03-25T07:18:26;5.77;;;4.00;;
12218;SDS011;6172;42.646;23.344;2024-03-25T07:20:52;7.30;;;4.27;;
12218;SDS011;6172;42.646;23.344;2024-03-25T07:23:18;4.57;;;3.80;;
12218;SDS011;6172;42.646;23.344;2024-03-25T07:25:44;5.47;;;3.90;;
12218;SDS011;6172;42.646;23.344;2024-03-25T07:28:10;7.57;;;3.73;;
12218;SDS011;6172;42.646;23.344;2024-03-25T07:30:36;5.33;;;4.30;;
12218;SDS011;6172;42.646;23.344;2024-03-25T07:33:03;4.57;;;3.80;;
12218;SDS011;6172;42.646;23.344;2024-03-25T07:35:29;5.17;;;4.63;;
12218;SDS011;6172;42.646;23.344;2024-03-25T07:37:55;7.13;;;4.50;;
12218;SDS011;6172;42.646;23.344;2024-03-25T07:40:21;7.87;;;4.47;;
12218;SDS011;6172;42.646;23.344;2024-03-25T07:42:47;5.37;;;4.27;;
12218;SDS011;6172;42.646;23.344;2024-03-25T07:45:14;4.83;;;4.00;;
12218;SDS011;6172;42.646;23.344;2024-03-25T07:47:40;6.10;;;4.03;;
12218;SDS011;6172;42.646;23.344;2024-03-25T07:50:08;4.10;;;3.70;;
12218;SDS011;6172;42.646;23.344;2024-03-25T07:52:34;4.37;;;3.50;;
12218;SDS011;6172;42.646;23.344;2024-03-25T07:55:00;5.80;;;3.63;;
12218;SDS011;6172;42.646;23.344;2024-03-25T07:57:26;4.70;;;3.73;;
12218;SDS011;6172;42.646;23.344;2024-03-25T07:59:52;4.80;;;3.80;;
12218;SDS011;6172;42.646;23.344;2024-03-25T08:02:18;10.27;;;4.13;;
12218;SDS011;6172;42.646;23.344;2024-03-25T08:04:44;5.40;;;3.90;;
12218;SDS011;6172;42.646;23.344;2024-03-25T08:07:11;5.67;;;3.40;;
12218;SDS011;6172;42.646;23.344;2024-03-25T08:09:37;4.77;;;3.27;;
12218;SDS011;6172;42.646;23.344;2024-03-25T08:12:03;3.40;;;3.10;;
12218;SDS011;6172;42.646;23.344;2024-03-25T08:14:30;5.20;;;3.40;;
12218;SDS011;6172;42.646;23.344;2024-03-25T08:16:56;3.67;;;3.37;;
12218;SDS011;6172;42.646;23.344;2024-03-25T08:19:21;3.13;;;2.83;;
12218;SDS011;6172;42.646;23.344;2024-03-25T08:21:47;5.17;;;3.57;;
12218;SDS011;6172;42.646;23.344;2024-03-25T08:24:15;5.00;;;3.97;;
12218;SDS011;6172;42.646;23.344;2024-03-25T08:26:41;5.43;;;3.37;;
12218;SDS011;6172;42.646;23.344;2024-03-25T08:29:07;3.83;;;3.00;;
12218;SDS011;6172;42.646;23.344;2024-03-25T08:31:32;3.70;;;3.07;;
12218;SDS011;6172;42.646;23.344;2024-03-25T08:33:58;3.83;;;3.40;;
12218;SDS011;6172;42.646;23.344;2024-03-25T08:36:24;4.33;;;3.30;;
12218;SDS011;6172;42.646;23.344;2024-03-25T08:38:50;4.00;;;3.40;;
12218;SDS011;6172;42.646;23.344;2024-03-25T08:41:17;3.37;;;3.07;;
12218;SDS011;6172;42.646;23.344;2024-03-25T08:43:43;5.07;;;3.73;;
12218;SDS011;6172;42.646;23.344;2024-03-25T08:46:09;3.73;;;3.03;;
12218;SDS011;6172;42.646;23.344;2024-03-25T08:48:35;4.17;;;3.23;;
12218;SDS011;6172;42.646;23.344;2024-03-25T08:51:01;3.97;;;3.53;;
12218;SDS011;6172;42.646;23.344;2024-03-25T08:53:27;3.83;;;3.20;;
12218;SDS011;6172;42.646;23.344;2024-03-25T08:55:53;3.77;;;2.97;;
12218;SDS011;6172;42.646;23.344;2024-03-25T08:58:20;3.00;;;2.80;;
12218;SDS011;6172;42.646;23.344;2024-03-25T09:00:46;3.93;;;2.57;;
12218;SDS011;6172;42.646;23.344;2024-03-25T09:03:12;2.87;;;2.67;;
12218;SDS011;6172;42.646;23.344;2024-03-25T09:05:38;3.70;;;3.00;;
12218;SDS011;6172;42.646;23.344;2024-03-25T09:08:04;3.87;;;3.07;;
12218;SDS011;6172;42.646;23.344;2024-03-25T09:10:30;4.80;;;2.97;;
12218;SDS011;6172;42.646;23.344;2024-03-25T09:13:15;3.37;;;3.13;;
12218;SDS011;6172;42.646;23.344;2024-03-25T09:15:42;4.57;;;3.23;;
12218;SDS011;6172;42.646;23.344;2024-03-25T09:18:08;6.60;;;3.10;;
12218;SDS011;6172;42.646;23.344;2024-03-25T09:20:34;3.87;;;3.23;;
12218;SDS011;6172;42.646;23.344;2024-03-25T09:23:00;3.80;;;3.07;;
12218;SDS011;6172;42.646;23.344;2024-03-25T09:25:26;4.00;;;3.57;;
12218;SDS011;6172;42.646;23.344;2024-03-25T09:27:52;3.10;;;2.80;;
12218;SDS011;6172;42.646;23.344;2024-03-25T09:30:18;4.03;;;3.37;;
12218;SDS011;6172;42.646;23.344;2024-03-25T09:32:45;4.60;;;3.13;;
12218;SDS011;6172;42.646;23.344;2024-03-25T09:35:11;4.70;;;3.47;;
12218;SDS011;6172;42.646;23.344;2024-03-25T09:37:37;3.63;;;3.33;;
12218;SDS011;6172;42.646;23.344;2024-03-25T09:40:04;4.33;;;3.93;;
12218;SDS011;6172;42.646;23.344;2024-03-25T09:42:33;5.63;;;3.40;;
12218;SDS011;6172;42.646;23.344;2024-03-25T09:44:59;4.30;;;3.20;;
12218;SDS011;6172;42.646;23.344;2024-03-25T09:47:26;4.10;;;3.47;;
12218;SDS011;6172;42.646;23.344;2024-03-25T09:49:54;3.47;;;3.17;;
12218;SDS011;6172;42.646;23.344;2024-03-25T09:52:21;4.40;;;2.97;;
12218;SDS011;6172;42.646;23.344;2024-03-25T09:54:47;3.77;;;3.47;;
12218;SDS011;6172;42.646;23.344;2024-03-25T09:57:13;5.50;;;3.20;;
12218;SDS011;6172;42.646;23.344;2024-03-25T09:59:39;4.13;;;3.60;;
12218;SDS011;6172;42.646;23.344;2024-03-25T10:02:05;4.73;;;3.27;;
12218;SDS011;6172;42.646;23.344;2024-03-25T10:04:36;5.43;;;3.47;;
12218;SDS011;6172;42.646;23.344;2024-03-25T10:07:07;2.70;;;2.50;;
12218;SDS011;6172;42.646;23.344;2024-03-25T10:09:33;5.10;;;2.80;;
12218;SDS011;6172;42.646;23.344;2024-03-25T10:11:59;3.10;;;2.80;;
12218;SDS011;6172;42.646;23.344;2024-03-25T10:14:26;5.40;;;3.27;;
12218;SDS011;6172;42.646;23.344;2024-03-25T10:16:52;2.90;;;2.63;;
12218;SDS011;6172;42.646;23.344;2024-03-25T10:19:19;4.73;;;3.10;;
12218;SDS011;6172;42.646;23.344;2024-03-25T10:21:45;3.77;;;2.37;;
12218;SDS011;6172;42.646;23.344;2024-03-25T10:24:12;5.10;;;2.77;;
12218;SDS011;6172;42.646;23.344;2024-03-25T10:26:42;5.37;;;3.00;;
12218;SDS011;6172;42.646;23.344;2024-03-25T10:29:08;3.20;;;2.37;;
12218;SDS011;6172;42.646;23.344;2024-03-25T10:31:34;3.10;;;2.50;;
12218;SDS011;6172;42.646;23.344;2024-03-25T10:34:00;4.00;;;2.40;;
12218;SDS011;6172;42.646;23.344;2024-03-25T10:36:26;5.07;;;2.70;;
12218;SDS011;6172;42.646;23.344;2024-03-25T10:38:53;2.33;;;2.20;;
12218;SDS011;6172;42.646;23.344;2024-03-25T10:41:22;3.00;;;2.20;;
12218;SDS011;6172;42.646;23.344;2024-03-25T10:43:48;2.70;;;1.97;;
12218;SDS011;6172;42.646;23.344;2024-03-25T10:46:17;3.23;;;2.10;;
12218;SDS011;6172;42.646;23.344;2024-03-25T10:48:44;2.30;;;1.83;;
12218;SDS011;6172;42.646;23.344;2024-03-25T10:51:18;1.60;;;1.50;;
12218;SDS011;6172;42.646;23.344;2024-03-25T10:53:47;2.97;;;2.13;;
12218;SDS011;6172;42.646;23.344;2024-03-25T10:56:15;2.03;;;1.40;;
12218;SDS011;6172;42.646;23.344;2024-03-25T10:58:43;2.03;;;1.83;;
12218;SDS011;6172;42.646;23.344;2024-03-25T11:01:10;3.10;;;2.27;;
12218;SDS011;6172;42.646;23.344;2024-03-25T11:03:36;4.80;;;1.90;;
12218;SDS011;6172;42.646;23.344;2024-03-25T11:06:03;4.40;;;1.53;;
12218;SDS011;6172;42.646;23.344;2024-03-25T11:08:30;1.90;;;1.20;;
12218;SDS011;6172;42.646;23.344;2024-03-25T11:10:57;2.33;;;1.60;;
12218;SDS011;6172;42.646;23.344;2024-03-25T11:13:23;2.20;;;1.87;;
12218;SDS011;6172;42.646;23.344;2024-03-25T11:15:53;2.07;;;1.90;;
12218;SDS011;6172;42.646;23.344;2024-03-25T11:18:22;2.30;;;2.10;;
12218;SDS011;6172;42.646;23.344;2024-03-25T11:20:59;4.57;;;2.33;;
12218;SDS011;6172;42.646;23.344;2024-03-25T11:23:25;3.63;;;1.73;;
12218;SDS011;6172;42.646;23.344;2024-03-25T11:25:54;2.33;;;2.00;;
12218;SDS011;6172;42.646;23.344;2024-03-25T11:28:26;2.03;;;1.80;;
12218;SDS011;6172;42.646;23.344;2024-03-25T11:30:54;3.33;;;2.03;;
12218;SDS011;6172;42.646;23.344;2024-03-25T11:33:21;1.77;;;1.67;;
12218;SDS011;6172;42.646;23.344;2024-03-25T11:35:47;3.17;;;1.97;;
12218;SDS011;6172;42.646;23.344;2024-03-25T11:38:13;3.23;;;1.40;;
12218;SDS011;6172;42.646;23.344;2024-03-25T11:40:41;4.73;;;2.03;;
12218;SDS011;6172;42.646;23.344;2024-03-25T11:43:09;2.03;;;1.53;;
12218;SDS011;6172;42.646;23.344;2024-03-25T11:45:35;1.60;;;1.50;;
12218;SDS011;6172;42.646;23.344;2024-03-25T11:48:03;1.10;;;1.00;;
12218;SDS011;6172;42.646;23.344;2024-03-25T11:50:30;2.27;;;1.60;;
12218;SDS011;6172;42.646;23.344;2024-03-25T11:52:59;2.73;;;1.33;;
12218;SDS011;6172;42.646;23.344;2024-03-25T11:55:28;1.60;;;1.50;;
12218;SDS011;6172;42.646;23.344;2024-03-25T11:57:54;5.23;;;1.57;;
12218;SDS011;6172;42.646;23.344;2024-03-25T12:00:21;1.97;;;1.70;;
12218;SDS011;6172;42.646;23.344;2024-03-25T12:02:47;2.10;;;1.90;;
12218;SDS011;6172;42.646;23.344;2024-03-25T12:05:14;1.93;;;1.63;;
12218;SDS011;6172;42.646;23.344;2024-03-25T12:07:40;2.80;;;1.80;;
12218;SDS011;6172;42.646;23.344;2024-03-25T12:10:07;1.40;;;1.30;;
12218;SDS011;6172;42.646;23.344;2024-03-25T12:12:51;1.87;;;1.73;;
12218;SDS011;6172;42.646;23.344;2024-03-25T12:15:18;1.40;;;1.30;;
12218;SDS011;6172;42.646;23.344;2024-03-25T12:17:44;4.90;;;1.20;;
12218;SDS011;6172;42.646;23.344;2024-03-25T12:20:10;1.10;;;1.10;;
12218;SDS011;6172;42.646;23.344;2024-03-25T12:22:38;3.37;;;1.60;;
12218;SDS011;6172;42.646;23.344;2024-03-25T12:25:05;8.37;;;1.30;;
12218;SDS011;6172;42.646;23.344;2024-03-25T12:27:33;1.77;;;1.23;;
12218;SDS011;6172;42.646;23.344;2024-03-25T12:30:00;1.50;;;1.40;;
12218;SDS011;6172;42.646;23.344;2024-03-25T12:32:31;1.50;;;1.40;;
12218;SDS011;6172;42.646;23.344;2024-03-25T12:35:01;2.63;;;1.20;;
12218;SDS011;6172;42.646;23.344;2024-03-25T12:37:27;1.27;;;1.00;;
12218;SDS011;6172;42.646;23.344;2024-03-25T12:39:55;2.90;;;1.30;;
12218;SDS011;6172;42.646;23.344;2024-03-25T12:42:21;1.67;;;1.53;;
12218;SDS011;6172;42.646;23.344;2024-03-25T12:44:47;1.40;;;1.30;;
12218;SDS011;6172;42.646;23.344;2024-03-25T12:47:14;2.37;;;1.23;;
12218;SDS011;6172;42.646;23.344;2024-03-25T12:49:39;2.47;;;1.27;;
12218;SDS011;6172;42.646;23.344;2024-03-25T12:52:05;1.57;;;1.47;;
12218;SDS011;6172;42.646;23.344;2024-03-25T12:54:32;2.30;;;1.27;;
12218;SDS011;6172;42.646;23.344;2024-03-25T12:56:59;2.07;;;1.30;;
12218;SDS011;6172;42.646;23.344;2024-03-25T12:59:25;1.93;;;1.50;;
12218;SDS011;6172;42.646;23.344;2024-03-25T13:01:51;4.37;;;1.57;;
12218;SDS011;6172;42.646;23.344;2024-03-25T13:04:17;3.00;;;1.20;;
12218;SDS011;6172;42.646;23.344;2024-03-25T13:06:43;3.33;;;1.13;;
12218;SDS011;6172;42.646;23.344;2024-03-25T13:09:09;1.47;;;1.33;;
12218;SDS011;6172;42.646;23.344;2024-03-25T13:11:35;2.60;;;1.63;;
12218;SDS011;6172;42.646;23.344;2024-03-25T13:14:04;2.43;;;1.77;;
12218;SDS011;6172;42.646;23.344;2024-03-25T13:16:30;5.60;;;1.33;;
12218;SDS011;6172;42.646;23.344;2024-03-25T13:18:56;4.70;;;1.40;;
12218;SDS011;6172;42.646;23.344;2024-03-25T13:21:22;1.53;;;1.43;;
12218;SDS011;6172;42.646;23.344;2024-03-25T13:23:48;3.03;;;1.57;;
12218;SDS011;6172;42.646;23.344;2024-03-25T13:26:14;2.00;;;1.43;;
12218;SDS011;6172;42.646;23.344;2024-03-25T13:28:40;1.53;;;1.30;;
12218;SDS011;6172;42.646;23.344;2024-03-25T13:31:07;2.37;;;1.47;;
12218;SDS011;6172;42.646;23.344;2024-03-25T13:33:33;4.07;;;1.80;;
12218;SDS011;6172;42.646;23.344;2024-03-25T13:35:59;1.87;;;0.90;;
12218;SDS011;6172;42.646;23.344;2024-03-25T13:38:25;1.10;;;0.90;;
12218;SDS011;6172;42.646;23.344;2024-03-25T13:40:52;2.13;;;1.33;;
12218;SDS011;6172;42.646;23.344;2024-03-25T13:43:18;3.80;;;1.60;;
12218;SDS011;6172;42.646;23.344;2024-03-25T13:45:46;1.73;;;1.30;;
12218;SDS011;6172;42.646;23.344;2024-03-25T13:48:14;3.50;;;0.97;;
12218;SDS011;6172;42.646;23.344;2024-03-25T13:50:41;3.70;;;1.30;;
12218;SDS011;6172;42.646;23.344;2024-03-25T13:53:07;2.83;;;1.43;;
12218;SDS011;6172;42.646;23.344;2024-03-25T13:55:33;4.10;;;1.03;;
12218;SDS011;6172;42.646;23.344;2024-03-25T13:57:59;3.07;;;1.43;;
12218;SDS011;6172;42.646;23.344;2024-03-25T14:00:24;2.23;;;1.10;;
12218;SDS011;6172;42.646;23.344;2024-03-25T14:02:51;4.03;;;0.80;;
12218;SDS011;6172;42.646;23.344;2024-03-25T14:05:18;2.07;;;0.80;;
12218;SDS011;6172;42.646;23.344;2024-03-25T14:07:44;2.37;;;0.60;;
12218;SDS011;6172;42.646;23.344;2024-03-25T14:10:10;0.87;;;0.47;;
12218;SDS011;6172;42.646;23.344;2024-03-25T14:12:36;0.67;;;0.40;;
12218;SDS011;6172;42.646;23.344;2024-03-25T14:15:02;8.30;;;0.60;;
12218;SDS011;6172;42.646;23.344;2024-03-25T14:17:29;0.87;;;0.33;;
12218;SDS011;6172;42.646;23.344;2024-03-25T14:19:55;2.93;;;0.67;;
12218;SDS011;6172;42.646;23.344;2024-03-25T14:22:23;2.37;;;0.40;;
12218;SDS011;6172;42.646;23.344;2024-03-25T14:24:49;5.10;;;1.10;;
12218;SDS011;6172;42.646;23.344;2024-03-25T14:27:15;2.73;;;0.77;;
12218;SDS011;6172;42.646;23.344;2024-03-25T14:29:41;0.60;;;0.50;;
12218;SDS011;6172;42.646;23.344;2024-03-25T14:32:07;2.27;;;0.60;;
12218;SDS011;6172;42.646;23.344;2024-03-25T14:34:34;1.33;;;0.30;;
12218;SDS011;6172;42.646;23.344;2024-03-25T14:37:00;2.73;;;0.60;;
12218;SDS011;6172;42.646;23.344;2024-03-25T14:39:27;1.10;;;0.50;;
12218;SDS011;6172;42.646;23.344;2024-03-25T14:41:53;1.33;;;0.57;;
12218;SDS011;6172;42.646;23.344;2024-03-25T14:44:19;6.07;;;0.50;;
12218;SDS011;6172;42.646;23.344;2024-03-25T14:46:45;3.03;;;0.70;;
12218;SDS011;6172;42.646;23.344;2024-03-25T14:49:11;0.83;;;0.60;;